createdAt,value
2022-11-24T00:01:23.665Z,2.33
2022-11-24T00:03:54.950Z,2.43
2022-11-24T00:06:21.660Z,2.33
2022-11-24T00:08:48.674Z,2.40
2022-11-24T00:11:18.186Z,2.20
2022-11-24T00:13:45.054Z,2.90
2022-11-24T00:16:21.790Z,2.50
2022-11-24T00:18:50.652Z,2.13
2022-11-24T00:21:18.772Z,2.60
2022-11-24T00:23:46.555Z,2.63
2022-11-24T00:26:16.386Z,2.53
2022-11-24T00:28:44.442Z,2.60
2022-11-24T00:31:23.079Z,2.23
2022-11-24T00:33:52.318Z,2.17
2022-11-24T00:36:20.861Z,2.40
2022-11-24T00:38:48.260Z,2.30
2022-11-24T00:41:14.912Z,2.10
2022-11-24T00:43:41.592Z,2.50
2022-11-24T00:46:08.543Z,2.50
2022-11-24T00:48:35.415Z,2.73
2022-11-24T00:51:04.355Z,2.93
2022-11-24T00:53:31.366Z,2.40
2022-11-24T00:55:58.130Z,2.53
2022-11-24T00:58:25.582Z,2.40
2022-11-24T01:00:52.860Z,2.50
2022-11-24T01:03:21.156Z,2.50
2022-11-24T01:05:48.589Z,3.03
2022-11-24T01:08:15.391Z,3.00
2022-11-24T01:10:42.086Z,2.67
2022-11-24T01:13:08.781Z,3.30
2022-11-24T01:15:36.201Z,2.57
2022-11-24T01:18:04.109Z,2.90
2022-11-24T01:20:31.471Z,2.20
2022-11-24T01:22:58.504Z,2.50
2022-11-24T01:25:25.207Z,2.10
2022-11-24T01:27:51.954Z,2.30
2022-11-24T01:30:18.721Z,2.27
2022-11-24T01:32:46.453Z,2.90
2022-11-24T01:35:13.087Z,2.70
2022-11-24T01:37:39.772Z,3.13
2022-11-24T01:40:07.269Z,2.60
2022-11-24T01:42:43.372Z,2.13
2022-11-24T01:45:35.262Z,2.60
2022-11-24T01:48:05.961Z,2.70
2022-11-24T01:50:35.580Z,2.50
2022-11-24T01:53:03.051Z,2.20
2022-11-24T01:55:36.558Z,2.60
2022-11-24T01:58:07.208Z,2.33
2022-11-24T02:00:37.162Z,2.07
2022-11-24T02:03:04.274Z,2.30
2022-11-24T02:05:42.025Z,3.17
2022-11-24T02:08:20.895Z,2.43
2022-11-24T02:10:48.490Z,2.70
2022-11-24T02:13:15.633Z,2.77
2022-11-24T02:15:42.831Z,2.73
2022-11-24T02:18:09.635Z,2.57
2022-11-24T02:20:36.545Z,2.60
2022-11-24T02:23:22.868Z,2.43
2022-11-24T02:26:01.673Z,3.07
2022-11-24T02:28:30.742Z,2.60
2022-11-24T02:30:59.796Z,2.50
2022-11-24T02:33:27.269Z,2.50
2022-11-24T02:35:54.051Z,3.13
2022-11-24T02:38:29.814Z,2.10
2022-11-24T02:40:57.456Z,2.57
2022-11-24T02:43:24.413Z,2.83
2022-11-24T02:45:51.229Z,2.70
2022-11-24T02:48:18.439Z,2.83
2022-11-24T02:50:45.124Z,2.63
2022-11-24T02:53:11.860Z,2.60
2022-11-24T02:55:38.634Z,2.60
2022-11-24T02:58:05.278Z,3.07
2022-11-24T03:00:32.114Z,2.97
2022-11-24T03:02:58.915Z,2.50
2022-11-24T03:05:26.131Z,3.00
2022-11-24T03:07:52.783Z,3.17
2022-11-24T03:10:19.567Z,3.10
2022-11-24T03:12:46.262Z,2.70
2022-11-24T03:15:12.926Z,2.63
2022-11-24T03:17:39.654Z,3.07
2022-11-24T03:20:06.997Z,2.90
2022-11-24T03:22:33.867Z,3.27
2022-11-24T03:25:01.008Z,3.00
2022-11-24T03:27:27.727Z,2.97
2022-11-24T03:29:54.360Z,3.07
2022-11-24T03:32:20.980Z,2.83
2022-11-24T03:34:47.640Z,2.87
2022-11-24T03:37:14.808Z,3.10
2022-11-24T03:39:41.634Z,2.43
2022-11-24T03:42:08.553Z,3.07
2022-11-24T03:44:35.489Z,2.93
2022-11-24T03:47:02.322Z,3.10
2022-11-24T03:49:29.228Z,3.47
2022-11-24T03:51:55.876Z,2.97
2022-11-24T03:54:22.664Z,3.00
2022-11-24T03:56:49.455Z,3.27
2022-11-24T03:59:16.210Z,2.83
2022-11-24T04:01:42.971Z,2.30
2022-11-24T04:04:11.132Z,2.63
2022-11-24T04:06:38.345Z,2.70
2022-11-24T04:09:05.229Z,2.97
2022-11-24T04:12:04.338Z,4.03
2022-11-24T04:14:31.200Z,2.73
2022-11-24T04:16:58.073Z,2.90
2022-11-24T04:19:24.703Z,3.10
2022-11-24T04:21:51.406Z,3.20
2022-11-24T04:24:18.082Z,2.67
2022-11-24T04:26:44.730Z,2.50
2022-11-24T04:29:11.425Z,2.90
2022-11-24T04:31:38.219Z,2.73
2022-11-24T04:34:04.941Z,3.17
2022-11-24T04:36:31.657Z,3.10
2022-11-24T04:39:23.025Z,3.67
2022-11-24T04:41:47.264Z,3.77
2022-11-24T04:44:14.211Z,3.17
2022-11-24T04:46:40.906Z,2.80
2022-11-24T04:49:11.529Z,3.07
2022-11-24T04:51:41.498Z,3.40
2022-11-24T04:54:11.108Z,3.10
2022-11-24T04:56:38.199Z,3.30
2022-11-24T04:59:08.440Z,3.27
2022-11-24T05:01:35.475Z,3.07
2022-11-24T05:04:02.290Z,3.07
2022-11-24T05:06:28.916Z,3.03
2022-11-24T05:08:55.676Z,3.20
2022-11-24T05:11:22.359Z,3.17
2022-11-24T05:13:49.109Z,3.30
2022-11-24T05:16:16.023Z,3.27
2022-11-24T05:18:42.746Z,3.80
2022-11-24T05:21:09.631Z,2.87
2022-11-24T05:23:36.376Z,3.07
2022-11-24T05:26:04.157Z,3.60
2022-11-24T05:28:31.635Z,2.87
2022-11-24T05:31:00.618Z,2.70
2022-11-24T05:33:29.538Z,3.33
2022-11-24T05:36:01.745Z,3.27
2022-11-24T05:38:29.586Z,2.90
2022-11-24T05:41:04.601Z,2.90
2022-11-24T05:43:31.531Z,3.57
2022-11-24T05:46:01.765Z,3.70
2022-11-24T05:48:28.848Z,3.93
2022-11-24T05:50:56.990Z,4.10
2022-11-24T05:53:24.312Z,4.20
2022-11-24T05:55:51.037Z,3.47
2022-11-24T05:58:18.071Z,3.20
2022-11-24T06:00:44.773Z,3.97
2022-11-24T06:03:12.251Z,4.07
2022-11-24T06:05:39.208Z,4.53
2022-11-24T06:08:06.058Z,3.93
2022-11-24T06:10:32.666Z,3.70
2022-11-24T06:12:59.398Z,3.10
2022-11-24T06:15:26.125Z,2.47
2022-11-24T06:17:57.045Z,2.80
2022-11-24T06:20:29.758Z,2.37
2022-11-24T06:22:58.961Z,2.83
2022-11-24T06:25:26.264Z,2.77
2022-11-24T06:27:53.017Z,2.53
2022-11-24T06:30:19.735Z,2.60
2022-11-24T06:32:49.763Z,2.40
2022-11-24T06:35:17.296Z,2.43
2022-11-24T06:37:44.147Z,2.60
2022-11-24T06:40:11.046Z,2.33
2022-11-24T06:42:38.050Z,2.03
2022-11-24T06:45:09.020Z,2.70
2022-11-24T06:47:36.650Z,2.13
2022-11-24T06:50:03.585Z,2.80
2022-11-24T06:52:30.675Z,2.13
2022-11-24T06:54:57.401Z,2.20
2022-11-24T06:57:24.163Z,2.40
2022-11-24T06:59:50.975Z,2.50
2022-11-24T07:02:17.650Z,2.47
2022-11-24T07:04:44.348Z,1.90
2022-11-24T07:07:11.110Z,2.50
2022-11-24T07:09:37.919Z,2.33
2022-11-24T07:12:05.892Z,2.70
2022-11-24T07:14:33.131Z,2.27
2022-11-24T07:17:02.386Z,2.13
2022-11-24T07:19:29.047Z,2.50
2022-11-24T07:21:55.770Z,2.80
2022-11-24T07:24:22.435Z,2.27
2022-11-24T07:26:49.065Z,2.57
2022-11-24T07:29:15.867Z,2.70
2022-11-24T07:31:42.654Z,3.00
2022-11-24T07:34:09.443Z,2.70
2022-11-24T07:36:36.118Z,2.77
2022-11-24T07:39:02.863Z,2.23
2022-11-24T07:41:29.601Z,2.50
2022-11-24T07:43:56.316Z,2.50
2022-11-24T07:46:23.078Z,2.40
2022-11-24T07:48:49.894Z,2.30
2022-11-24T07:51:17.014Z,2.20
2022-11-24T07:53:44.923Z,2.10
2022-11-24T07:56:12.559Z,2.93
2022-11-24T07:58:39.317Z,2.77
2022-11-24T08:01:11.538Z,2.67
2022-11-24T08:03:38.597Z,2.80
2022-11-24T08:06:23.961Z,2.40
2022-11-24T08:08:52.115Z,1.87
2022-11-24T08:11:18.896Z,2.10
2022-11-24T08:13:45.903Z,2.23
2022-11-24T08:16:17.611Z,2.23
2022-11-24T08:18:48.985Z,2.50
2022-11-24T08:21:15.659Z,2.27
2022-11-24T08:23:42.825Z,2.20
2022-11-24T08:26:18.801Z,2.33
2022-11-24T08:28:46.789Z,1.87
2022-11-24T08:31:16.368Z,2.43
2022-11-24T08:33:43.496Z,2.80
2022-11-24T08:36:12.522Z,2.20
2022-11-24T08:38:39.407Z,2.10
2022-11-24T08:41:12.297Z,2.93
2022-11-24T08:43:39.383Z,2.97
2022-11-24T08:46:12.314Z,2.33
2022-11-24T08:48:39.200Z,2.23
2022-11-24T08:51:12.097Z,2.30
2022-11-24T08:53:39.872Z,2.13
2022-11-24T08:56:07.984Z,2.33
2022-11-24T08:58:35.579Z,1.97
2022-11-24T09:01:16.976Z,2.10
2022-11-24T09:03:50.688Z,2.50
2022-11-24T09:06:23.513Z,2.23
2022-11-24T09:08:53.834Z,1.87
2022-11-24T09:11:20.735Z,2.00
2022-11-24T09:13:47.621Z,2.30
2022-11-24T09:16:17.658Z,1.77
2022-11-24T09:18:45.041Z,2.10
2022-11-24T09:21:20.303Z,2.60
2022-11-24T09:23:49.292Z,1.90
2022-11-24T09:26:27.861Z,2.53
2022-11-24T09:28:56.291Z,2.27
2022-11-24T09:31:33.472Z,2.63
2022-11-24T09:34:01.835Z,2.00
2022-11-24T09:36:29.174Z,1.97
2022-11-24T09:38:55.887Z,2.20
2022-11-24T09:41:49.882Z,2.33
2022-11-24T09:44:45.931Z,2.50
2022-11-24T09:47:30.945Z,2.00
2022-11-24T09:50:09.510Z,2.50
2022-11-24T09:53:03.615Z,1.83
2022-11-24T09:55:44.577Z,2.20
2022-11-24T09:58:35.467Z,2.20
2022-11-24T10:01:07.905Z,1.80
2022-11-24T10:03:39.463Z,2.37
2022-11-24T10:06:16.225Z,2.33
2022-11-24T10:08:58.144Z,2.30
2022-11-24T10:11:38.678Z,2.27
2022-11-24T10:14:26.719Z,2.20
2022-11-24T10:17:15.022Z,2.03
2022-11-24T10:19:51.014Z,2.17
2022-11-24T10:22:38.361Z,2.03
2022-11-24T10:25:08.012Z,2.30
2022-11-24T10:27:42.840Z,2.00
2022-11-24T10:30:19.859Z,1.93
2022-11-24T10:32:49.162Z,2.17
2022-11-24T10:35:28.564Z,2.47
2022-11-24T10:38:07.569Z,2.00
2022-11-24T10:41:02.213Z,1.63
2022-11-24T10:43:29.310Z,2.20
2022-11-24T10:46:09.754Z,2.00
2022-11-24T10:48:50.770Z,2.43
2022-11-24T10:51:54.218Z,1.83
2022-11-24T10:54:22.957Z,1.93
2022-11-24T10:56:52.569Z,2.20
2022-11-24T10:59:25.470Z,2.40
2022-11-24T11:01:53.087Z,2.20
2022-11-24T11:04:22.013Z,1.90
2022-11-24T11:06:48.679Z,2.30
2022-11-24T11:09:19.390Z,2.40
2022-11-24T11:11:48.693Z,2.50
2022-11-24T11:14:35.524Z,1.70
2022-11-24T11:17:03.699Z,1.93
2022-11-24T11:19:49.308Z,1.90
2022-11-24T11:22:32.153Z,1.70
2022-11-24T11:25:11.147Z,2.47
2022-11-24T11:27:39.648Z,2.43
2022-11-24T11:36:11.457Z,1.97
2022-11-24T11:38:39.728Z,1.90
2022-11-24T11:41:13.901Z,1.83
2022-11-24T11:43:41.435Z,2.60
2022-11-24T11:46:08.242Z,2.43
2022-11-24T11:48:43.176Z,2.90
2022-11-24T11:51:25.903Z,2.63
2022-11-24T11:54:09.561Z,2.03
2022-11-24T11:56:45.264Z,1.97
2022-11-24T11:59:41.826Z,2.40
2022-11-24T12:02:39.757Z,2.73
2022-11-24T12:05:39.001Z,2.63
2022-11-24T12:08:55.827Z,2.33
2022-11-24T12:11:45.909Z,2.63
2022-11-24T12:14:20.935Z,2.00
2022-11-24T12:17:07.261Z,1.93
2022-11-24T12:19:42.807Z,2.40
2022-11-24T12:22:18.182Z,2.37
2022-11-24T12:24:50.941Z,2.00
2022-11-24T12:27:42.812Z,2.53
2022-11-24T12:30:14.035Z,2.93
2022-11-24T12:32:53.166Z,2.03
2022-11-24T12:35:36.953Z,2.00
2022-11-24T12:38:15.467Z,1.70
2022-11-24T12:41:40.603Z,1.93
2022-11-24T12:44:10.843Z,2.40
2022-11-24T12:46:48.614Z,2.20
2022-11-24T12:49:29.576Z,1.93
2022-11-24T12:52:05.900Z,1.80
2022-11-24T12:54:39.597Z,2.00
2022-11-24T12:57:14.514Z,2.37
2022-11-24T13:00:00.298Z,1.80
2022-11-24T13:02:40.025Z,1.87
2022-11-24T13:05:34.882Z,1.93
2022-11-24T13:08:05.279Z,2.00
2022-11-24T13:13:35.438Z,2.10
2022-11-24T13:19:32.273Z,1.97
2022-11-24T13:22:08.247Z,1.93
2022-11-24T13:24:38.990Z,2.13
2022-11-24T13:27:19.692Z,2.13
2022-11-24T13:29:48.031Z,1.67
2022-11-24T13:32:14.666Z,1.70
2022-11-24T13:34:42.610Z,1.80
2022-11-24T13:37:31.458Z,1.53
2022-11-24T13:40:23.287Z,1.57
2022-11-24T13:43:01.895Z,1.90
2022-11-24T13:45:41.044Z,1.83
2022-11-24T13:48:20.200Z,1.90
2022-11-24T13:50:50.541Z,2.13
2022-11-24T13:53:47.221Z,1.93
2022-11-24T13:56:13.931Z,2.03
2022-11-24T13:58:47.615Z,2.27
2022-11-24T14:01:28.752Z,2.10
2022-11-24T14:04:29.801Z,2.50
2022-11-24T14:07:07.486Z,1.90
2022-11-24T14:09:42.058Z,1.63
2022-11-24T14:12:20.099Z,2.20
2022-11-24T14:14:49.049Z,2.13
2022-11-24T14:17:20.437Z,2.53
2022-11-24T14:19:49.649Z,2.10
2022-11-24T14:22:39.183Z,2.00
2022-11-24T14:25:19.520Z,2.37
2022-11-24T14:27:46.368Z,2.27
2022-11-24T14:30:13.555Z,2.60
2022-11-24T14:32:42.210Z,2.57
2022-11-24T14:35:26.282Z,2.43
2022-11-24T14:37:53.577Z,2.30
2022-11-24T14:40:56.276Z,1.93
2022-11-24T14:43:25.550Z,2.57
2022-11-24T14:45:59.361Z,2.23
2022-11-24T14:48:33.367Z,2.50
2022-11-24T14:51:08.394Z,2.33
2022-11-24T14:53:35.610Z,2.00
2022-11-24T14:56:08.972Z,2.43
2022-11-24T14:58:41.748Z,2.00
2022-11-24T15:01:18.189Z,2.30
2022-11-24T15:03:45.512Z,1.87
2022-11-24T15:06:19.386Z,1.70
2022-11-24T15:08:48.677Z,2.20
2022-11-24T15:11:15.747Z,2.20
2022-11-24T15:13:53.627Z,2.20
2022-11-24T15:16:24.348Z,2.00
2022-11-24T15:19:02.005Z,2.77
2022-11-24T15:21:37.326Z,2.27
2022-11-24T15:24:18.770Z,1.90
2022-11-24T15:26:45.993Z,2.17
2022-11-24T15:29:13.264Z,2.60
2022-11-24T15:31:41.135Z,2.10
2022-11-24T15:34:13.631Z,2.57
2022-11-24T15:36:40.295Z,2.50
2022-11-24T15:39:07.020Z,2.80
2022-11-24T15:41:33.781Z,2.20
2022-11-24T15:44:00.550Z,2.87
2022-11-24T15:46:29.624Z,2.23
2022-11-24T15:48:57.158Z,2.30
2022-11-24T15:51:27.097Z,2.37
2022-11-24T15:54:00.677Z,2.20
2022-11-24T15:56:36.438Z,2.70
2022-11-24T15:59:04.285Z,2.70
2022-11-24T16:01:33.375Z,2.83
2022-11-24T16:04:01.127Z,2.70
2022-11-24T16:06:28.057Z,3.90
2022-11-24T16:08:55.379Z,2.67
2022-11-24T16:11:23.295Z,2.80
2022-11-24T16:13:53.447Z,2.57
2022-11-24T16:16:22.780Z,2.90
2022-11-24T16:18:49.627Z,3.40
2022-11-24T16:21:16.424Z,3.53
2022-11-24T16:23:43.130Z,3.33
2022-11-24T16:26:10.284Z,3.43
2022-11-24T16:28:37.085Z,3.80
2022-11-24T16:31:04.097Z,3.13
2022-11-24T16:33:31.006Z,3.47
2022-11-24T16:35:57.726Z,3.10
2022-11-24T16:38:24.469Z,3.33
2022-11-24T16:40:52.556Z,3.50
2022-11-24T16:43:19.283Z,3.73
2022-11-24T16:45:46.395Z,3.63
2022-11-24T16:48:13.142Z,3.57
2022-11-24T16:50:39.888Z,3.40
2022-11-24T16:53:06.543Z,3.50
2022-11-24T16:55:33.257Z,3.33
2022-11-24T16:58:03.928Z,3.23
2022-11-24T17:00:30.582Z,3.10
2022-11-24T17:02:57.273Z,3.60
2022-11-24T17:05:24.428Z,3.77
2022-11-24T17:07:51.135Z,4.03
2022-11-24T17:10:17.856Z,3.67
2022-11-24T17:12:44.821Z,3.50
2022-11-24T17:18:22.803Z,4.53
2022-11-24T17:20:44.866Z,4.60
2022-11-24T17:23:11.561Z,3.77
2022-11-24T17:25:38.215Z,3.83
2022-11-24T17:28:04.917Z,3.80
2022-11-24T17:30:31.595Z,3.70
2022-11-24T17:32:58.316Z,3.73
2022-11-24T17:35:25.091Z,3.13
2022-11-24T17:37:51.679Z,3.13
2022-11-24T17:40:34.271Z,3.53
2022-11-24T17:43:02.397Z,3.50
2022-11-24T17:45:30.421Z,3.40
2022-11-24T17:47:59.389Z,3.60
2022-11-24T17:50:26.669Z,4.17
2022-11-24T17:52:54.272Z,3.67
2022-11-24T17:55:21.399Z,3.80
2022-11-24T17:57:48.069Z,4.13
2022-11-24T18:00:15.229Z,3.90
2022-11-24T18:02:42.002Z,3.93
2022-11-24T18:05:08.973Z,4.03
2022-11-24T18:07:36.661Z,4.33
2022-11-24T18:10:06.370Z,4.43
2022-11-24T18:12:33.160Z,4.00
2022-11-24T18:14:59.976Z,4.10
2022-11-24T18:17:28.998Z,4.00
2022-11-24T18:19:55.647Z,3.53
2022-11-24T18:22:42.982Z,3.70
2022-11-24T18:25:09.253Z,4.93
2022-11-24T18:27:35.984Z,4.37
2022-11-24T18:30:03.782Z,3.43
2022-11-24T18:32:30.444Z,4.20
2022-11-24T18:34:57.075Z,3.70
2022-11-24T18:37:23.770Z,3.87
2022-11-24T18:39:50.555Z,4.17
2022-11-24T18:42:17.773Z,4.40
2022-11-24T18:44:46.033Z,4.40
2022-11-24T18:47:14.393Z,4.17
2022-11-24T18:49:41.095Z,3.67
2022-11-24T18:52:07.752Z,3.60
2022-11-24T18:54:34.885Z,3.87
2022-11-24T18:57:03.714Z,4.67
2022-11-24T18:59:30.649Z,5.10
2022-11-24T19:01:57.961Z,5.27
2022-11-24T19:04:26.266Z,5.73
2022-11-24T19:06:53.012Z,5.47
2022-11-24T19:09:22.442Z,4.30
2022-11-24T19:11:49.202Z,4.23
2022-11-24T19:14:18.027Z,4.60
2022-11-24T19:16:47.630Z,4.00
2022-11-24T19:19:14.716Z,4.17
2022-11-24T19:21:41.516Z,4.50
2022-11-24T19:24:13.109Z,4.50
2022-11-24T19:26:40.287Z,4.27
2022-11-24T19:29:07.723Z,3.63
2022-11-24T19:31:35.368Z,4.73
2022-11-24T19:34:03.141Z,4.43
2022-11-24T19:36:30.224Z,4.77
2022-11-24T19:38:58.376Z,5.87
2022-11-24T19:41:30.910Z,5.33
2022-11-24T19:43:58.713Z,5.23
2022-11-24T19:46:27.454Z,5.07
2022-11-24T19:48:57.080Z,5.10
2022-11-24T19:51:30.704Z,4.83
2022-11-24T19:53:57.794Z,5.40
2022-11-24T19:56:27.160Z,4.50
2022-11-24T19:58:55.152Z,5.10
2022-11-24T20:01:29.899Z,6.17
2022-11-24T20:04:03.024Z,4.80
2022-11-24T20:06:36.753Z,4.73
2022-11-24T20:09:05.638Z,4.93
2022-11-24T20:11:32.356Z,5.23
2022-11-24T20:13:59.153Z,4.67
2022-11-24T20:16:29.790Z,4.17
2022-11-24T20:19:00.512Z,3.53
2022-11-24T20:21:31.229Z,4.23
2022-11-24T20:24:01.803Z,4.20
2022-11-24T20:26:34.987Z,3.63
2022-11-24T20:29:03.954Z,3.47
2022-11-24T20:31:34.090Z,3.50
2022-11-24T20:34:02.741Z,3.20
2022-11-24T20:36:31.227Z,3.60
2022-11-24T20:39:00.421Z,3.47
2022-11-24T20:41:33.653Z,3.10
2022-11-24T20:44:04.994Z,2.97
2022-11-24T20:46:33.552Z,3.30
2022-11-24T20:49:00.981Z,2.90
2022-11-24T20:51:29.707Z,3.07
2022-11-24T20:53:59.804Z,3.00
2022-11-24T20:56:30.057Z,3.10
2022-11-24T20:58:57.212Z,3.13
2022-11-24T21:01:28.731Z,2.90
2022-11-24T21:03:58.565Z,3.53
2022-11-24T21:06:27.909Z,3.27
2022-11-24T21:09:00.482Z,3.10
2022-11-24T21:11:31.134Z,3.70
2022-11-24T21:13:57.889Z,3.43
2022-11-24T21:16:27.693Z,3.30
2022-11-24T21:19:03.012Z,3.70
2022-11-24T21:21:34.050Z,3.10
2022-11-24T21:24:02.488Z,3.40
2022-11-24T21:26:29.565Z,3.80
2022-11-24T21:28:56.958Z,3.43
2022-11-24T21:31:23.805Z,3.30
2022-11-24T21:33:52.510Z,3.07
2022-11-24T21:36:24.081Z,3.43
2022-11-24T21:38:56.329Z,3.10
2022-11-24T21:41:25.067Z,3.37
2022-11-24T21:43:52.244Z,4.33
2022-11-24T21:46:19.135Z,3.90
2022-11-24T21:48:45.955Z,3.17
2022-11-24T21:51:16.330Z,3.37
2022-11-24T21:53:44.007Z,3.67
2022-11-24T21:56:13.771Z,3.10
2022-11-24T21:58:47.674Z,3.33
2022-11-24T22:01:16.050Z,2.97
2022-11-24T22:03:43.411Z,3.67
2022-11-24T22:06:10.436Z,2.83
2022-11-24T22:08:37.134Z,3.33
2022-11-24T22:11:12.823Z,3.30
2022-11-24T22:13:40.404Z,4.10
2022-11-24T22:16:12.639Z,3.83
2022-11-24T22:18:41.724Z,3.80
2022-11-24T22:21:12.474Z,4.50
2022-11-24T22:23:39.505Z,3.90
2022-11-24T22:26:07.075Z,3.40
2022-11-24T22:28:35.385Z,3.50
2022-11-24T22:31:07.069Z,3.60
2022-11-24T22:33:34.549Z,3.17
2022-11-24T22:36:02.361Z,3.23
2022-11-24T22:38:30.470Z,3.13
2022-11-24T22:41:27.588Z,3.53
2022-11-24T22:43:54.464Z,3.57
2022-11-24T22:46:24.122Z,3.50
2022-11-24T22:48:54.413Z,3.60
2022-11-24T22:51:27.139Z,3.10
2022-11-24T22:53:56.199Z,3.30
2022-11-24T22:56:23.807Z,3.33
2022-11-24T22:58:51.266Z,3.27
2022-11-24T23:01:23.180Z,2.83
2022-11-24T23:03:51.020Z,2.93
2022-11-24T23:06:20.463Z,2.77
2022-11-24T23:08:47.435Z,3.33
2022-11-24T23:11:27.379Z,2.97
2022-11-24T23:14:03.032Z,3.00
2022-11-24T23:16:30.281Z,3.70
2022-11-24T23:19:00.278Z,3.03
2022-11-24T23:21:29.530Z,2.97
2022-11-24T23:23:58.185Z,3.43
2022-11-24T23:26:27.811Z,3.40
2022-11-24T23:28:54.670Z,3.37
2022-11-24T23:31:30.317Z,3.30
2022-11-24T23:33:58.665Z,3.00
2022-11-24T23:36:26.059Z,3.00
2022-11-24T23:38:52.790Z,3.20
2022-11-24T23:41:25.150Z,3.23
2022-11-24T23:43:52.448Z,2.93
2022-11-24T23:46:23.801Z,3.00
2022-11-24T23:48:52.013Z,2.70
2022-11-24T23:51:21.904Z,3.30
2022-11-24T23:53:48.892Z,3.10
2022-11-24T23:56:19.235Z,3.27
2022-11-24T23:58:46.572Z,3.40
